sensor_id;sensor_type;location;lat;lon;timestamp;temperature;humidity
36790;DHT22;22740;52.182;8.780;2022-08-19T00:04:41;20.10;99.90
36790;DHT22;22740;52.182;8.780;2022-08-19T00:10:43;20.00;99.90
36790;DHT22;22740;52.182;8.780;2022-08-19T00:16:48;19.90;99.90
36790;DHT22;22740;52.182;8.780;2022-08-19T00:22:50;19.80;99.90
36790;DHT22;22740;52.182;8.780;2022-08-19T00:28:54;19.70;99.90
36790;DHT22;22740;52.182;8.780;2022-08-19T00:34:56;19.70;99.90
36790;DHT22;22740;52.182;8.780;2022-08-19T00:40:58;19.60;99.90
36790;DHT22;22740;52.182;8.780;2022-08-19T00:47:00;19.60;99.90
36790;DHT22;22740;52.182;8.780;2022-08-19T00:53:02;19.50;99.90
36790;DHT22;22740;52.182;8.780;2022-08-19T00:59:06;19.60;99.90
36790;DHT22;22740;52.182;8.780;2022-08-19T01:05:16;19.70;99.90
36790;DHT22;22740;52.182;8.780;2022-08-19T01:11:20;19.60;99.90
36790;DHT22;22740;52.182;8.780;2022-08-19T01:17:22;19.50;99.90
36790;DHT22;22740;52.182;8.780;2022-08-19T01:23:24;19.40;99.90
36790;DHT22;22740;52.182;8.780;2022-08-19T01:29:44;19.40;99.90
36790;DHT22;22740;52.182;8.780;2022-08-19T01:35:47;19.20;99.90
36790;DHT22;22740;52.182;8.780;2022-08-19T01:41:52;19.20;99.90
36790;DHT22;22740;52.182;8.780;2022-08-19T01:47:58;19.30;99.90
36790;DHT22;22740;52.182;8.780;2022-08-19T01:54:03;18.90;99.90
36790;DHT22;22740;52.182;8.780;2022-08-19T02:00:09;18.70;99.90
36790;DHT22;22740;52.182;8.780;2022-08-19T02:06:12;18.80;99.90
36790;DHT22;22740;52.182;8.780;2022-08-19T02:12:15;18.80;99.90
36790;DHT22;22740;52.182;8.780;2022-08-19T02:18:17;18.80;99.90
36790;DHT22;22740;52.182;8.780;2022-08-19T02:24:19;18.80;99.90
36790;DHT22;22740;52.182;8.780;2022-08-19T02:30:21;18.90;99.90
36790;DHT22;22740;52.182;8.780;2022-08-19T02:36:24;18.90;99.90
36790;DHT22;22740;52.182;8.780;2022-08-19T02:42:26;18.80;99.90
36790;DHT22;22740;52.182;8.780;2022-08-19T02:48:28;18.70;99.90
36790;DHT22;22740;52.182;8.780;2022-08-19T02:54:30;18.70;99.90
36790;DHT22;22740;52.182;8.780;2022-08-19T03:00:32;18.60;99.90
36790;DHT22;22740;52.182;8.780;2022-08-19T03:06:41;18.50;99.90
36790;DHT22;22740;52.182;8.780;2022-08-19T03:12:43;18.60;99.90
36790;DHT22;22740;52.182;8.780;2022-08-19T03:18:45;18.60;99.90
36790;DHT22;22740;52.182;8.780;2022-08-19T03:24:47;18.70;99.90
36790;DHT22;22740;52.182;8.780;2022-08-19T03:30:57;18.50;99.90
36790;DHT22;22740;52.182;8.780;2022-08-19T03:37:09;18.50;99.90
36790;DHT22;22740;52.182;8.780;2022-08-19T03:43:11;18.40;99.90
36790;DHT22;22740;52.182;8.780;2022-08-19T03:49:13;18.40;99.90
36790;DHT22;22740;52.182;8.780;2022-08-19T03:55:15;18.40;99.90
36790;DHT22;22740;52.182;8.780;2022-08-19T04:01:19;18.30;99.90
36790;DHT22;22740;52.182;8.780;2022-08-19T04:07:35;18.10;99.90
36790;DHT22;22740;52.182;8.780;2022-08-19T04:13:37;18.10;99.90
36790;DHT22;22740;52.182;8.780;2022-08-19T04:19:40;18.10;99.90
36790;DHT22;22740;52.182;8.780;2022-08-19T04:25:43;18.10;99.90
36790;DHT22;22740;52.182;8.780;2022-08-19T04:31:45;18.10;99.90
36790;DHT22;22740;52.182;8.780;2022-08-19T04:37:48;18.10;99.90
36790;DHT22;22740;52.182;8.780;2022-08-19T04:43:50;18.10;99.90
36790;DHT22;22740;52.182;8.780;2022-08-19T04:49:51;18.00;99.90
36790;DHT22;22740;52.182;8.780;2022-08-19T04:55:57;18.00;99.90
36790;DHT22;22740;52.182;8.780;2022-08-19T05:02:00;18.10;99.90
36790;DHT22;22740;52.182;8.780;2022-08-19T05:08:02;18.10;99.90
36790;DHT22;22740;52.182;8.780;2022-08-19T05:14:07;18.00;99.90
36790;DHT22;22740;52.182;8.780;2022-08-19T05:20:10;17.80;99.90
36790;DHT22;22740;52.182;8.780;2022-08-19T05:26:31;17.80;99.90
36790;DHT22;22740;52.182;8.780;2022-08-19T05:32:33;17.70;99.90
36790;DHT22;22740;52.182;8.780;2022-08-19T05:38:35;17.60;99.90
36790;DHT22;22740;52.182;8.780;2022-08-19T05:44:40;17.50;99.90
36790;DHT22;22740;52.182;8.780;2022-08-19T05:50:50;17.80;99.90
36790;DHT22;22740;52.182;8.780;2022-08-19T05:56:53;18.00;99.90
36790;DHT22;22740;52.182;8.780;2022-08-19T06:02:57;18.00;99.90
36790;DHT22;22740;52.182;8.780;2022-08-19T06:09:10;17.90;99.90
36790;DHT22;22740;52.182;8.780;2022-08-19T06:15:13;17.80;99.90
36790;DHT22;22740;52.182;8.780;2022-08-19T06:21:15;17.90;99.90
36790;DHT22;22740;52.182;8.780;2022-08-19T06:27:18;18.10;99.90
36790;DHT22;22740;52.182;8.780;2022-08-19T06:33:20;18.40;99.90
36790;DHT22;22740;52.182;8.780;2022-08-19T06:39:25;18.50;99.90
36790;DHT22;22740;52.182;8.780;2022-08-19T06:45:27;18.60;99.90
36790;DHT22;22740;52.182;8.780;2022-08-19T06:51:42;18.60;99.90
36790;DHT22;22740;52.182;8.780;2022-08-19T06:57:45;18.60;99.90
36790;DHT22;22740;52.182;8.780;2022-08-19T07:03:48;18.50;99.90
36790;DHT22;22740;52.182;8.780;2022-08-19T07:09:51;18.70;99.90
36790;DHT22;22740;52.182;8.780;2022-08-19T07:16:11;18.70;99.90
36790;DHT22;22740;52.182;8.780;2022-08-19T07:22:19;18.80;99.90
36790;DHT22;22740;52.182;8.780;2022-08-19T07:28:24;18.90;99.90
36790;DHT22;22740;52.182;8.780;2022-08-19T07:34:29;19.10;99.90
36790;DHT22;22740;52.182;8.780;2022-08-19T07:40:32;19.30;99.90
36790;DHT22;22740;52.182;8.780;2022-08-19T07:46:37;19.50;99.90
36790;DHT22;22740;52.182;8.780;2022-08-19T07:52:40;19.50;99.90
36790;DHT22;22740;52.182;8.780;2022-08-19T07:58:44;19.70;99.90
36790;DHT22;22740;52.182;8.780;2022-08-19T08:04:46;19.80;99.90
36790;DHT22;22740;52.182;8.780;2022-08-19T08:11:07;19.80;99.90
36790;DHT22;22740;52.182;8.780;2022-08-19T08:17:10;20.00;99.90
36790;DHT22;22740;52.182;8.780;2022-08-19T08:23:12;20.20;99.90
36790;DHT22;22740;52.182;8.780;2022-08-19T08:29:24;20.50;99.90
36790;DHT22;22740;52.182;8.780;2022-08-19T08:35:36;20.60;99.90
36790;DHT22;22740;52.182;8.780;2022-08-19T08:48:22;20.80;99.90
36790;DHT22;22740;52.182;8.780;2022-08-19T08:54:30;20.90;99.90
36790;DHT22;22740;52.182;8.780;2022-08-19T09:00:41;21.30;99.90
36790;DHT22;22740;52.182;8.780;2022-08-19T09:07:12;21.40;99.90
36790;DHT22;22740;52.182;8.780;2022-08-19T09:13:44;21.50;99.90
36790;DHT22;22740;52.182;8.780;2022-08-19T09:19:58;21.60;99.90
36790;DHT22;22740;52.182;8.780;2022-08-19T09:26:08;22.00;99.90
36790;DHT22;22740;52.182;8.780;2022-08-19T09:32:10;22.10;99.90
36790;DHT22;22740;52.182;8.780;2022-08-19T09:38:27;22.20;99.90
36790;DHT22;22740;52.182;8.780;2022-08-19T09:44:30;22.30;99.90
36790;DHT22;22740;52.182;8.780;2022-08-19T09:50:32;22.50;99.90
36790;DHT22;22740;52.182;8.780;2022-08-19T09:56:35;22.50;99.90
36790;DHT22;22740;52.182;8.780;2022-08-19T10:02:37;22.80;99.90
36790;DHT22;22740;52.182;8.780;2022-08-19T10:08:40;22.90;99.90
36790;DHT22;22740;52.182;8.780;2022-08-19T10:14:51;23.10;99.90
36790;DHT22;22740;52.182;8.780;2022-08-19T10:21:12;23.30;99.90
36790;DHT22;22740;52.182;8.780;2022-08-19T10:27:15;23.40;99.90
36790;DHT22;22740;52.182;8.780;2022-08-19T10:33:18;23.50;99.90
36790;DHT22;22740;52.182;8.780;2022-08-19T10:39:40;23.60;99.90
36790;DHT22;22740;52.182;8.780;2022-08-19T10:45:51;23.90;99.90
36790;DHT22;22740;52.182;8.780;2022-08-19T10:51:54;24.10;99.90
36790;DHT22;22740;52.182;8.780;2022-08-19T10:58:22;24.40;99.90
36790;DHT22;22740;52.182;8.780;2022-08-19T11:04:27;24.50;99.90
36790;DHT22;22740;52.182;8.780;2022-08-19T11:10:30;24.60;99.90
36790;DHT22;22740;52.182;8.780;2022-08-19T11:16:32;24.60;99.90
36790;DHT22;22740;52.182;8.780;2022-08-19T11:22:34;24.90;99.90
36790;DHT22;22740;52.182;8.780;2022-08-19T11:28:42;24.80;99.90
36790;DHT22;22740;52.182;8.780;2022-08-19T11:34:44;25.00;99.90
36790;DHT22;22740;52.182;8.780;2022-08-19T11:41:00;25.10;99.90
36790;DHT22;22740;52.182;8.780;2022-08-19T11:47:04;25.40;99.90
36790;DHT22;22740;52.182;8.780;2022-08-19T11:53:10;25.50;99.90
36790;DHT22;22740;52.182;8.780;2022-08-19T11:59:12;25.90;99.90
36790;DHT22;22740;52.182;8.780;2022-08-19T12:05:15;25.70;99.90
36790;DHT22;22740;52.182;8.780;2022-08-19T12:11:18;25.90;99.90
36790;DHT22;22740;52.182;8.780;2022-08-19T12:17:20;26.30;99.90
36790;DHT22;22740;52.182;8.780;2022-08-19T12:23:22;26.20;99.90
36790;DHT22;22740;52.182;8.780;2022-08-19T12:29:25;26.50;99.90
36790;DHT22;22740;52.182;8.780;2022-08-19T12:35:30;26.60;99.90
36790;DHT22;22740;52.182;8.780;2022-08-19T12:41:32;26.60;99.90
36790;DHT22;22740;52.182;8.780;2022-08-19T12:47:34;26.80;99.90
36790;DHT22;22740;52.182;8.780;2022-08-19T12:53:41;26.80;99.90
36790;DHT22;22740;52.182;8.780;2022-08-19T12:59:43;27.00;99.90
36790;DHT22;22740;52.182;8.780;2022-08-19T13:05:46;27.30;99.90
36790;DHT22;22740;52.182;8.780;2022-08-19T13:11:49;27.50;99.90
36790;DHT22;22740;52.182;8.780;2022-08-19T13:17:52;27.60;99.90
36790;DHT22;22740;52.182;8.780;2022-08-19T13:23:57;27.60;99.90
36790;DHT22;22740;52.182;8.780;2022-08-19T13:29:59;27.60;99.90
36790;DHT22;22740;52.182;8.780;2022-08-19T13:36:20;27.60;99.90
36790;DHT22;22740;52.182;8.780;2022-08-19T13:42:27;27.50;99.90
36790;DHT22;22740;52.182;8.780;2022-08-19T13:48:31;27.50;99.90
36790;DHT22;22740;52.182;8.780;2022-08-19T13:54:33;27.80;99.90
36790;DHT22;22740;52.182;8.780;2022-08-19T14:00:39;27.60;99.90
36790;DHT22;22740;52.182;8.780;2022-08-19T14:06:41;27.90;99.90
36790;DHT22;22740;52.182;8.780;2022-08-19T14:12:43;27.40;99.90
36790;DHT22;22740;52.182;8.780;2022-08-19T14:18:45;26.80;99.90
36790;DHT22;22740;52.182;8.780;2022-08-19T14:24:47;26.90;99.90
36790;DHT22;22740;52.182;8.780;2022-08-19T14:30:49;27.20;99.90
36790;DHT22;22740;52.182;8.780;2022-08-19T14:36:57;27.30;99.90
36790;DHT22;22740;52.182;8.780;2022-08-19T14:43:03;27.50;99.90
36790;DHT22;22740;52.182;8.780;2022-08-19T14:49:06;27.80;99.90
36790;DHT22;22740;52.182;8.780;2022-08-19T14:55:10;27.90;99.90
36790;DHT22;22740;52.182;8.780;2022-08-19T15:01:12;28.30;99.90
36790;DHT22;22740;52.182;8.780;2022-08-19T15:07:15;27.90;99.90
36790;DHT22;22740;52.182;8.780;2022-08-19T15:13:17;27.00;99.90
36790;DHT22;22740;52.182;8.780;2022-08-19T15:19:19;26.20;99.90
36790;DHT22;22740;52.182;8.780;2022-08-19T15:25:21;26.00;99.90
36790;DHT22;22740;52.182;8.780;2022-08-19T15:31:23;26.00;99.90
36790;DHT22;22740;52.182;8.780;2022-08-19T15:37:29;25.70;99.90
36790;DHT22;22740;52.182;8.780;2022-08-19T15:43:32;25.70;99.90
36790;DHT22;22740;52.182;8.780;2022-08-19T15:49:34;26.00;99.90
36790;DHT22;22740;52.182;8.780;2022-08-19T15:55:44;25.90;99.90
36790;DHT22;22740;52.182;8.780;2022-08-19T16:01:47;25.80;99.90
36790;DHT22;22740;52.182;8.780;2022-08-19T16:08:12;25.70;99.90
36790;DHT22;22740;52.182;8.780;2022-08-19T16:14:15;25.60;99.90
36790;DHT22;22740;52.182;8.780;2022-08-19T16:20:19;25.70;99.90
36790;DHT22;22740;52.182;8.780;2022-08-19T16:26:24;26.00;99.90
36790;DHT22;22740;52.182;8.780;2022-08-19T16:32:32;25.90;99.90
36790;DHT22;22740;52.182;8.780;2022-08-19T16:38:34;25.70;99.90
36790;DHT22;22740;52.182;8.780;2022-08-19T16:44:41;25.70;99.90
36790;DHT22;22740;52.182;8.780;2022-08-19T16:50:44;26.10;99.90
36790;DHT22;22740;52.182;8.780;2022-08-19T16:56:50;26.30;99.90
36790;DHT22;22740;52.182;8.780;2022-08-19T17:02:52;26.20;99.90
36790;DHT22;22740;52.182;8.780;2022-08-19T17:08:57;25.80;99.90
36790;DHT22;22740;52.182;8.780;2022-08-19T17:15:00;25.90;99.90
36790;DHT22;22740;52.182;8.780;2022-08-19T17:21:03;25.90;99.90
36790;DHT22;22740;52.182;8.780;2022-08-19T17:27:05;25.80;99.90
36790;DHT22;22740;52.182;8.780;2022-08-19T17:33:07;25.70;99.90
36790;DHT22;22740;52.182;8.780;2022-08-19T17:39:09;25.50;99.90
36790;DHT22;22740;52.182;8.780;2022-08-19T17:45:13;25.40;99.90
36790;DHT22;22740;52.182;8.780;2022-08-19T17:51:22;25.20;99.90
36790;DHT22;22740;52.182;8.780;2022-08-19T17:57:25;25.00;99.90
36790;DHT22;22740;52.182;8.780;2022-08-19T18:03:27;25.00;99.90
36790;DHT22;22740;52.182;8.780;2022-08-19T18:09:36;24.90;99.90
36790;DHT22;22740;52.182;8.780;2022-08-19T18:15:43;24.80;99.90
36790;DHT22;22740;52.182;8.780;2022-08-19T18:21:46;24.60;99.90
36790;DHT22;22740;52.182;8.780;2022-08-19T18:27:50;24.40;99.90
36790;DHT22;22740;52.182;8.780;2022-08-19T18:33:52;24.30;99.90
36790;DHT22;22740;52.182;8.780;2022-08-19T18:39:55;24.30;99.90
36790;DHT22;22740;52.182;8.780;2022-08-19T18:46:16;24.20;99.90
36790;DHT22;22740;52.182;8.780;2022-08-19T18:52:38;24.00;99.90
36790;DHT22;22740;52.182;8.780;2022-08-19T18:58:41;23.90;99.90
36790;DHT22;22740;52.182;8.780;2022-08-19T19:04:43;23.90;99.90
36790;DHT22;22740;52.182;8.780;2022-08-19T19:10:46;23.80;99.90
36790;DHT22;22740;52.182;8.780;2022-08-19T19:16:51;23.90;99.90
36790;DHT22;22740;52.182;8.780;2022-08-19T19:22:53;23.80;99.90
36790;DHT22;22740;52.182;8.780;2022-08-19T19:28:58;23.60;99.90
36790;DHT22;22740;52.182;8.780;2022-08-19T19:35:00;23.60;99.90
36790;DHT22;22740;52.182;8.780;2022-08-19T19:41:05;23.70;99.90
36790;DHT22;22740;52.182;8.780;2022-08-19T19:47:08;23.40;99.90
36790;DHT22;22740;52.182;8.780;2022-08-19T19:53:11;23.30;99.90
36790;DHT22;22740;52.182;8.780;2022-08-19T19:59:16;23.20;99.90
36790;DHT22;22740;52.182;8.780;2022-08-19T20:05:19;23.00;99.90
36790;DHT22;22740;52.182;8.780;2022-08-19T20:11:48;22.90;99.90
36790;DHT22;22740;52.182;8.780;2022-08-19T20:17:54;22.80;99.90
36790;DHT22;22740;52.182;8.780;2022-08-19T20:23:58;22.80;99.90
36790;DHT22;22740;52.182;8.780;2022-08-19T20:30:13;22.70;99.90
36790;DHT22;22740;52.182;8.780;2022-08-19T20:36:20;22.80;99.90
36790;DHT22;22740;52.182;8.780;2022-08-19T20:42:24;22.80;99.90
36790;DHT22;22740;52.182;8.780;2022-08-19T20:48:26;22.70;99.90
36790;DHT22;22740;52.182;8.780;2022-08-19T20:54:28;22.40;99.90
36790;DHT22;22740;52.182;8.780;2022-08-19T21:00:30;22.50;99.90
36790;DHT22;22740;52.182;8.780;2022-08-19T21:06:32;22.40;99.90
36790;DHT22;22740;52.182;8.780;2022-08-19T21:12:34;22.40;99.90
36790;DHT22;22740;52.182;8.780;2022-08-19T21:18:36;22.20;99.90
36790;DHT22;22740;52.182;8.780;2022-08-19T21:24:38;22.10;99.90
36790;DHT22;22740;52.182;8.780;2022-08-19T21:30:40;22.00;99.90
36790;DHT22;22740;52.182;8.780;2022-08-19T21:36:42;22.00;99.90
36790;DHT22;22740;52.182;8.780;2022-08-19T21:42:45;22.00;99.90
36790;DHT22;22740;52.182;8.780;2022-08-19T21:48:47;22.20;99.90
36790;DHT22;22740;52.182;8.780;2022-08-19T21:54:50;22.10;99.90
36790;DHT22;22740;52.182;8.780;2022-08-19T22:00:52;22.20;99.90
36790;DHT22;22740;52.182;8.780;2022-08-19T22:06:55;22.20;99.90
36790;DHT22;22740;52.182;8.780;2022-08-19T22:12:57;22.10;99.90
36790;DHT22;22740;52.182;8.780;2022-08-19T22:18:59;22.00;99.90
36790;DHT22;22740;52.182;8.780;2022-08-19T22:25:14;22.10;99.90
36790;DHT22;22740;52.182;8.780;2022-08-19T22:31:32;22.10;99.90
36790;DHT22;22740;52.182;8.780;2022-08-19T22:37:34;22.10;99.90
36790;DHT22;22740;52.182;8.780;2022-08-19T22:43:36;22.10;99.90
36790;DHT22;22740;52.182;8.780;2022-08-19T22:49:38;22.10;99.90
36790;DHT22;22740;52.182;8.780;2022-08-19T22:55:40;21.90;99.90
36790;DHT22;22740;52.182;8.780;2022-08-19T23:01:42;22.00;99.90
36790;DHT22;22740;52.182;8.780;2022-08-19T23:07:44;21.90;99.90
36790;DHT22;22740;52.182;8.780;2022-08-19T23:13:52;21.80;99.90
36790;DHT22;22740;52.182;8.780;2022-08-19T23:19:54;21.70;99.90
36790;DHT22;22740;52.182;8.780;2022-08-19T23:25:56;21.70;99.90
36790;DHT22;22740;52.182;8.780;2022-08-19T23:31:58;21.70;99.90
36790;DHT22;22740;52.182;8.780;2022-08-19T23:38:00;21.70;99.90
36790;DHT22;22740;52.182;8.780;2022-08-19T23:44:02;21.70;99.90
36790;DHT22;22740;52.182;8.780;2022-08-19T23:50:05;21.80;99.90
36790;DHT22;22740;52.182;8.780;2022-08-19T23:56:09;21.60;99.90
